Akaska, South Dakota
Current Conditions -  °F | °C
As of 5:52 AM on Sunday 21 Dec 2014 (Local Time) from KMBG Reporting Station
Clear Clear  
Wind Chill: -10°   Ceiling: Unl
Heat Index: -5°   Visibility: 9mi
Dew Point: -6°   Wind: 8mph
Humidity: 92%   Direction: 130°SE
Pressure: 29.64"   Gusts: NA
Location:  45.33°N, 100.12°W
Report Text: KMBG 211152Z AUTO 13007KT 9SM CLR M05/M06 A2964 RMK AO2 SLP059 T10501061 11022 21050 58027
Loading
Personal Weather Stations






























Interactive Weather Map New forecast layout! Learn more

10-Day Weather Forecast

Advertisements
Track Severe Weather on mobile